Time;durP1;ratioP1;P1;durP2;ratioP2;P2;SDS_P1;SDS_P2;PMS_P1;PMS_P2;Temp;Humidity;BMP_temperature;BMP_pressure;BME280_temperature;BME280_humidity;BME280_pressure;Samples;Min_cycle;Max_cycle;Signal;HPM_P1;HPM_P2
2021/12/26 00:01:16;;;;;;;;;12.25;11.75;;;;;17.90;43.43;99997.34;5015923;28;51192;-52
2021/12/26 00:03:42;;;;;;;;;9.50;9.25;;;;;17.91;43.52;99987.22;5015391;28;51826;-47
2021/12/26 00:06:12;;;;;;;;;10.25;9.50;;;;;17.89;43.66;99996.50;5015706;28;50978;-48
2021/12/26 00:08:38;;;;;;;;;11.50;11.50;;;;;17.90;43.47;99991.84;5015314;28;51129;-51
2021/12/26 00:11:05;;;;;;;;;7.50;7.50;;;;;17.90;43.81;99983.63;5015905;28;51037;-51
2021/12/26 00:13:31;;;;;;;;;10.75;9.25;;;;;17.90;43.57;99994.59;5015535;28;51011;-51
2021/12/26 00:15:59;;;;;;;;;11.25;8.75;;;;;17.90;43.37;99994.59;5015524;28;51298;-52
2021/12/26 00:18:25;;;;;;;;;16.75;10.25;;;;;17.89;43.51;99988.28;5015226;28;51161;-52
2021/12/26 00:20:51;;;;;;;;;13.00;12.00;;;;;17.89;43.36;99980.06;5015823;28;51325;-53
2021/12/26 00:23:17;;;;;;;;;10.75;9.50;;;;;17.89;43.54;99980.06;5015083;28;51116;-50
2021/12/26 00:25:44;;;;;;;;;12.25;9.25;;;;;17.89;43.56;99979.22;5015385;28;51193;-51
2021/12/26 00:28:10;;;;;;;;;10.75;9.75;;;;;17.90;43.67;99980.91;5015419;28;50934;-51
2021/12/26 00:30:36;;;;;;;;;7.25;7.25;;;;;17.89;43.60;99979.22;5015533;28;51003;-52
2021/12/26 00:33:01;;;;;;;;;7.75;7.75;;;;;17.89;43.71;99984.72;5015258;28;50942;-51
2021/12/26 00:35:27;;;;;;;;;9.50;9.25;;;;;17.89;43.98;99979.22;5015510;28;51071;-51
2021/12/26 00:37:53;;;;;;;;;10.25;10.00;;;;;17.88;43.60;99970.19;5015134;28;51042;-51
2021/12/26 00:40:21;;;;;;;;;8.50;7.25;;;;;17.89;43.50;99971.00;5015396;28;51422;-48
2021/12/26 00:42:48;;;;;;;;;13.50;9.00;;;;;17.88;43.66;99970.19;5014999;28;52410;-51
2021/12/26 00:45:13;;;;;;;;;7.75;7.50;;;;;17.88;43.36;99964.69;5015097;28;51390;-49
2021/12/26 00:47:39;;;;;;;;;9.75;7.50;;;;;17.88;43.43;99961.94;5015363;28;51369;-50
2021/12/26 00:50:08;;;;;;;;;10.00;7.00;;;;;17.88;43.61;99956.47;5015458;28;51203;-50
2021/12/26 00:52:34;;;;;;;;;8.25;8.25;;;;;17.88;43.37;99961.94;5015235;28;52025;-48
2021/12/26 00:54:59;;;;;;;;;9.75;8.25;;;;;17.87;43.51;99965.75;5014729;28;51092;-47
2021/12/26 00:57:25;;;;;;;;;11.25;11.00;;;;;17.88;43.56;99967.44;5015365;28;51033;-49
2021/12/26 00:59:50;;;;;;;;;9.50;7.00;;;;;17.88;43.68;99975.66;5015259;28;51034;-49
2021/12/26 01:02:15;;;;;;;;;5.25;5.25;;;;;17.87;43.58;99971.25;5014999;28;51081;-52
2021/12/26 01:04:43;;;;;;;;;8.25;8.25;;;;;17.89;43.48;99973.75;5015049;28;51063;-47
2021/12/26 01:07:26;;;;;;;;;9.75;8.50;;;;;17.88;43.65;99977.56;5015061;28;51109;-50
2021/12/26 01:09:53;;;;;;;;;8.00;7.00;;;;;17.89;43.44;99973.75;5014935;28;51730;-50
2021/12/26 01:12:19;;;;;;;;;8.75;7.50;;;;;17.88;43.60;99972.91;5030360;28;51835;-46
2021/12/26 01:14:51;;;;;;;;;12.25;10.25;;;;;17.88;43.44;99972.91;5015008;28;50918;-49
2021/12/26 01:17:20;;;;;;;;;10.25;9.25;;;;;17.88;43.68;99972.91;5014875;28;51111;-46
2021/12/26 01:19:50;;;;;;;;;7.50;7.25;;;;;17.89;43.65;99974.59;5014920;28;51013;-51
2021/12/26 01:22:16;;;;;;;;;13.50;10.25;;;;;17.88;43.70;99967.44;5015763;28;51776;-50
2021/12/26 01:24:43;;;;;;;;;10.50;7.50;;;;;17.88;43.69;99983.88;5018423;28;51111;-46
2021/12/26 01:27:09;;;;;;;;;11.25;9.50;;;;;17.88;43.58;99974.81;5018175;28;51275;-45
2021/12/26 01:29:35;;;;;;;;;8.25;7.00;;;;;17.88;43.53;99972.06;5018254;28;51167;-47
2021/12/26 01:32:01;;;;;;;;;7.25;7.00;;;;;17.88;43.50;99967.44;5017896;28;50997;-46
2021/12/26 01:34:27;;;;;;;;;11.00;7.75;;;;;17.88;43.36;99961.13;5018108;28;51094;-52
2021/12/26 01:36:52;;;;;;;;;6.75;6.75;;;;;17.88;43.46;99963.84;5018105;28;50903;-47
2021/12/26 01:39:18;;;;;;;;;10.25;7.25;;;;;17.87;43.38;99970.41;5018049;28;51399;-49
2021/12/26 01:41:44;;;;;;;;;10.25;9.50;;;;;17.87;43.70;99967.66;5017914;28;51032;-52
2021/12/26 01:44:12;;;;;;;;;8.00;8.00;;;;;17.86;43.49;99968.72;5017931;28;51495;-49
2021/12/26 01:46:39;;;;;;;;;6.00;6.00;;;;;17.88;43.45;99966.59;5018179;28;51069;-49
2021/12/26 01:49:15;;;;;;;;;6.25;6.25;;;;;17.87;43.45;99963.03;5033121;28;51048;-51
2021/12/26 01:51:42;;;;;;;;;7.75;7.00;;;;;17.87;43.57;99965.75;5017665;28;50970;-50
2021/12/26 01:54:10;;;;;;;;;9.00;8.50;;;;;17.88;43.69;99955.63;5017289;28;51400;-52
2021/12/26 01:56:37;;;;;;;;;9.00;6.00;;;;;17.86;43.58;99960.50;5017445;28;51070;-50
2021/12/26 01:59:06;;;;;;;;;9.75;9.00;;;;;17.87;43.61;99964.94;5017550;28;51178;-49
2021/12/26 02:01:31;;;;;;;;;6.75;5.75;;;;;17.87;43.68;99965.75;5017247;28;51828;-51
2021/12/26 02:03:57;;;;;;;;;10.00;8.00;;;;;17.85;43.42;99956.94;5017493;28;51055;-51
2021/12/26 02:06:22;;;;;;;;;9.25;8.00;;;;;17.85;43.58;99954.19;5017419;28;51111;-51
2021/12/26 02:08:49;;;;;;;;;7.75;5.50;;;;;17.87;43.76;99953.97;5017973;28;51636;-50
2021/12/26 02:11:15;;;;;;;;;5.75;5.25;;;;;17.87;43.66;99964.94;5017500;28;51193;-50
2021/12/26 02:13:41;;;;;;;;;8.25;7.00;;;;;17.87;43.42;99964.94;5017773;28;51235;-48
2021/12/26 02:16:07;;;;;;;;;8.25;5.75;;;;;17.86;43.47;99972.31;5017469;28;51089;-51
2021/12/26 02:18:33;;;;;;;;;7.75;5.25;;;;;17.85;43.69;99973.38;5017187;28;51322;-50
2021/12/26 02:23:51;;;;;;;;;7.50;5.50;;;;;17.85;43.71;99976.13;5017272;28;51123;-48
2021/12/26 02:29:00;;;;;;;;;5.50;5.50;;;;;17.84;43.68;99966.22;5017496;28;51069;-47
2021/12/26 02:31:26;;;;;;;;;7.75;6.25;;;;;17.85;43.55;99961.56;5016988;28;51086;-47
2021/12/26 02:33:51;;;;;;;;;8.50;8.00;;;;;17.85;43.47;99967.06;5016047;28;50998;-49
2021/12/26 02:36:17;;;;;;;;;7.50;6.25;;;;;17.85;43.85;99958.84;5017190;28;51126;-47
2021/12/26 02:38:42;;;;;;;;;8.00;7.75;;;;;17.85;43.78;99961.56;5017164;28;51101;-49
2021/12/26 02:41:07;;;;;;;;;7.00;6.50;;;;;17.87;43.54;99965.75;5016631;28;51913;-49
2021/12/26 02:43:33;;;;;;;;;6.50;6.50;;;;;17.85;43.70;99956.94;5016837;28;51054;-46
2021/12/26 02:46:04;;;;;;;;;7.25;6.50;;;;;17.85;43.52;99961.56;5017047;28;51056;-52
2021/12/26 02:48:30;;;;;;;;;11.00;9.00;;;;;17.85;43.77;99951.47;5016834;28;50976;-49
2021/12/26 02:50:57;;;;;;;;;6.00;6.00;;;;;17.86;43.52;99953.13;5016738;28;51039;-48
2021/12/26 02:53:23;;;;;;;;;6.75;6.75;;;;;17.86;43.50;99950.38;5016232;28;51015;-50
2021/12/26 02:55:54;;;;;;;;;4.50;4.25;;;;;17.85;43.77;99948.72;5015305;28;51276;-51
2021/12/26 02:58:21;;;;;;;;;6.00;5.00;;;;;17.85;43.79;99956.94;5017164;28;51299;-51
2021/12/26 03:00:57;;;;;;;;;7.50;5.50;;;;;17.86;43.53;99949.56;5016718;28;51142;-50
2021/12/26 03:03:23;;;;;;;;;9.00;6.00;;;;;17.85;43.62;99947.88;5016761;28;51151;-47
2021/12/26 03:05:57;;;;;;;;;9.75;7.00;;;;;17.84;43.76;99948.94;5016736;28;51097;-49
2021/12/26 03:08:23;;;;;;;;;8.25;5.00;;;;;17.84;43.51;99948.94;5016467;28;51318;-51
2021/12/26 03:10:48;;;;;;;;;7.50;7.50;;;;;17.85;43.68;99953.34;5016499;28;51465;-51
2021/12/26 03:13:14;;;;;;;;;7.75;7.75;;;;;17.87;43.79;99951.22;5016491;28;51144;-49
2021/12/26 03:15:41;;;;;;;;;10.00;7.00;;;;;17.84;43.79;99952.53;5016633;28;51261;-51
2021/12/26 03:18:08;;;;;;;;;9.50;7.25;;;;;17.84;43.72;99946.22;5016148;28;51302;-48
2021/12/26 03:20:38;;;;;;;;;5.50;5.50;;;;;17.84;43.82;99946.22;5016073;28;51047;-47
2021/12/26 03:23:06;;;;;;;;;6.00;6.00;;;;;17.84;43.56;99948.94;5016012;28;51056;-49
2021/12/26 03:25:32;;;;;;;;;7.25;6.75;;;;;17.84;43.69;99949.78;5016670;28;51170;-51
2021/12/26 03:27:58;;;;;;;;;7.25;6.00;;;;;17.83;43.56;99948.09;5016378;28;51217;-50
2021/12/26 03:30:26;;;;;;;;;8.00;8.00;;;;;17.84;43.54;99943.47;5016188;28;51093;-50
2021/12/26 03:32:53;;;;;;;;;7.00;6.25;;;;;17.83;43.54;99945.38;5016139;28;51320;-47
2021/12/26 03:35:20;;;;;;;;;8.00;6.50;;;;;17.84;43.61;99954.44;5016383;28;51157;-49
2021/12/26 03:37:45;;;;;;;;;7.00;5.00;;;;;17.84;43.71;99951.69;5016232;28;50907;-46
2021/12/26 03:40:11;;;;;;;;;7.50;5.25;;;;;17.84;43.68;99944.31;5015808;28;51817;-50
2021/12/26 03:42:37;;;;;;;;;10.75;9.50;;;;;17.83;43.53;99942.63;5016138;28;50947;-50
2021/12/26 03:45:04;;;;;;;;;7.75;6.50;;;;;17.84;44.02;99952.53;5015711;28;50895;-51
2021/12/26 03:47:31;;;;;;;;;7.50;6.50;;;;;17.85;43.71;99947.88;5016492;28;51177;-49
2021/12/26 03:49:57;;;;;;;;;7.75;7.75;;;;;17.84;43.53;99947.03;5015645;28;51967;-47
2021/12/26 03:52:23;;;;;;;;;5.50;5.50;;;;;17.85;43.58;99947.88;5016193;28;51073;-50
2021/12/26 03:54:49;;;;;;;;;6.25;5.50;;;;;17.84;43.86;99935.25;5015796;28;51309;-46
2021/12/26 03:57:15;;;;;;;;;5.50;5.50;;;;;17.84;43.79;99938.00;5016447;28;51177;-53
2021/12/26 03:59:40;;;;;;;;;6.00;6.00;;;;;17.85;43.75;99936.91;5015787;28;51888;-49
2021/12/26 04:02:06;;;;;;;;;5.00;5.00;;;;;17.84;43.42;99936.09;5015981;28;51038;-49
2021/12/26 04:04:32;;;;;;;;;5.25;5.25;;;;;17.83;43.70;99937.16;5015908;28;51153;-50
2021/12/26 04:06:57;;;;;;;;;5.75;4.75;;;;;17.84;43.68;99941.56;5015949;28;51240;-47
2021/12/26 04:09:22;;;;;;;;;4.75;4.75;;;;;17.84;43.23;99940.72;5015509;28;51695;-50
2021/12/26 04:11:48;;;;;;;;;7.00;5.00;;;;;17.83;43.75;99930.84;5015972;28;51105;-50
2021/12/26 04:14:14;;;;;;;;;8.50;8.00;;;;;17.83;43.80;99926.19;5015682;28;51010;-50
2021/12/26 04:16:40;;;;;;;;;5.25;5.25;;;;;17.83;43.71;99923.47;5015986;28;51069;-49
2021/12/26 04:19:06;;;;;;;;;8.25;8.00;;;;;17.83;43.75;99920.72;5015202;28;51040;-50
2021/12/26 04:21:32;;;;;;;;;8.25;6.25;;;;;17.83;43.60;99923.47;5015895;28;51293;-53
2021/12/26 04:23:59;;;;;;;;;7.25;7.25;;;;;17.83;43.54;99917.97;5015534;28;51113;-49
2021/12/26 04:26:25;;;;;;;;;7.75;7.50;;;;;17.82;43.65;99913.56;5015733;28;51087;-52
2021/12/26 04:28:50;;;;;;;;;7.50;6.00;;;;;17.82;43.71;99913.56;5015546;28;51707;-52
2021/12/26 04:31:16;;;;;;;;;7.50;7.25;;;;;17.83;43.57;99912.50;5015386;28;51008;-50
2021/12/26 04:33:42;;;;;;;;;5.50;4.25;;;;;17.84;43.92;99916.06;5015519;28;51161;-50
2021/12/26 04:36:08;;;;;;;;;7.50;6.00;;;;;17.83;43.48;99917.97;5015621;28;51185;-52
2021/12/26 04:38:33;;;;;;;;;4.25;4.25;;;;;17.83;43.61;99912.50;5013599;28;52704;-48
2021/12/26 04:40:59;;;;;;;;;7.75;5.25;;;;;17.83;43.77;99919.88;5015316;28;50927;-49
2021/12/26 04:43:26;;;;;;;;;8.50;5.75;;;;;17.83;43.53;99920.72;5015350;28;51102;-52
2021/12/26 04:45:52;;;;;;;;;4.75;4.75;;;;;17.82;43.70;99908.09;5015613;28;51227;-51
2021/12/26 04:48:17;;;;;;;;;9.75;8.75;;;;;17.83;43.89;99917.97;5015106;28;51317;-50
2021/12/26 04:50:43;;;;;;;;;6.75;6.75;;;;;17.83;43.81;99915.22;5014075;28;51036;-51
2021/12/26 04:53:09;;;;;;;;;7.50;6.25;;;;;17.83;43.85;99912.50;5015167;28;51054;-47
2021/12/26 04:55:35;;;;;;;;;7.75;5.50;;;;;17.83;43.81;99908.91;5015352;28;51098;-49
2021/12/26 04:58:00;;;;;;;;;9.75;7.75;;;;;17.84;43.68;99902.38;5017317;28;50875;-53
2021/12/26 05:00:29;;;;;;;;;6.25;5.25;;;;;17.83;43.62;99909.75;5018839;28;50973;-50
2021/12/26 05:02:56;;;;;;;;;5.75;5.75;;;;;17.82;43.61;99905.34;5018710;28;50965;-46
2021/12/26 05:05:22;;;;;;;;;6.25;6.25;;;;;17.83;43.97;99906.19;5018794;28;50992;-46
2021/12/26 05:07:48;;;;;;;;;8.00;7.00;;;;;17.82;43.61;99904.47;5018077;28;51038;-51
2021/12/26 05:10:18;;;;;;;;;5.75;5.50;;;;;17.83;43.80;99904.28;5018730;28;51347;-53
2021/12/26 05:12:43;;;;;;;;;11.50;9.25;;;;;17.82;43.82;99899.88;5018771;28;51102;-52
2021/12/26 05:15:10;;;;;;;;;10.75;8.00;;;;;17.82;43.65;99899.88;5018819;28;51157;-52
2021/12/26 05:17:36;;;;;;;;;8.25;6.00;;;;;17.83;43.76;99903.44;5018119;28;51126;-52
2021/12/26 05:20:03;;;;;;;;;8.50;7.00;;;;;17.83;43.65;99901.53;5018239;28;51052;-50
2021/12/26 05:22:28;;;;;;;;;8.00;7.00;;;;;17.83;43.85;99900.69;5018521;28;51168;-50
2021/12/26 05:24:54;;;;;;;;;6.00;6.00;;;;;17.82;43.76;99899.88;5018573;28;51298;-51
2021/12/26 05:27:19;;;;;;;;;10.00;6.00;;;;;17.82;43.68;99897.13;5018162;28;51992;-50
2021/12/26 05:29:44;;;;;;;;;8.25;8.25;;;;;17.82;43.75;99890.78;5018278;28;50938;-48
2021/12/26 05:32:10;;;;;;;;;4.75;4.75;;;;;17.82;43.50;99893.53;5018126;28;51720;-52
2021/12/26 05:34:35;;;;;;;;;10.50;8.75;;;;;17.83;43.85;99892.47;5018185;28;50974;-52
2021/12/26 05:37:01;;;;;;;;;7.50;7.25;;;;;17.83;43.95;99898.81;5018104;28;51007;-51
2021/12/26 05:39:26;;;;;;;;;7.25;6.25;;;;;17.83;43.64;99889.75;5017781;28;50965;-50
2021/12/26 05:41:52;;;;;;;;;6.25;6.00;;;;;17.82;43.78;99888.91;5018256;28;51663;-50
2021/12/26 05:44:17;;;;;;;;;9.25;8.00;;;;;17.82;43.73;99891.66;5018300;28;51152;-48
2021/12/26 05:46:43;;;;;;;;;11.00;7.25;;;;;17.82;43.95;99886.16;5017946;28;51889;-50
2021/12/26 05:49:09;;;;;;;;;6.75;6.00;;;;;17.81;43.80;99884.47;5017834;28;50973;-51
2021/12/26 05:51:34;;;;;;;;;11.00;6.50;;;;;17.81;43.65;99889.94;5017954;28;51085;-50
2021/12/26 05:54:00;;;;;;;;;7.50;6.00;;;;;17.81;43.85;99887.19;5017782;28;51042;-51
2021/12/26 05:56:25;;;;;;;;;5.50;5.50;;;;;17.81;43.99;99895.41;5017570;28;51851;-51
2021/12/26 05:58:51;;;;;;;;;7.75;7.00;;;;;17.82;43.63;99888.03;5017715;28;51211;-50
2021/12/26 06:01:16;;;;;;;;;6.00;5.50;;;;;17.82;43.63;99902.59;5017986;28;51115;-52
2021/12/26 06:03:42;;;;;;;;;7.25;7.25;;;;;17.82;43.62;99896.25;5017888;28;51026;-48
2021/12/26 06:06:07;;;;;;;;;9.75;6.50;;;;;17.82;43.64;99893.53;5017437;28;52613;-47
2021/12/26 06:08:33;;;;;;;;;9.50;7.00;;;;;17.81;43.90;99892.69;5017090;28;51081;-52
2021/12/26 06:10:58;;;;;;;;;8.75;5.25;;;;;17.82;43.53;99890.78;5017732;28;51200;-48
2021/12/26 06:13:24;;;;;;;;;7.50;7.25;;;;;17.82;43.71;99888.91;5018110;28;51358;-49
2021/12/26 06:15:49;;;;;;;;;5.00;4.50;;;;;17.81;43.94;99892.69;5017181;28;52142;-51
2021/12/26 06:18:15;;;;;;;;;6.75;6.75;;;;;17.82;43.92;99888.03;5017079;28;50969;-51
2021/12/26 06:20:40;;;;;;;;;10.00;7.00;;;;;17.81;43.85;99889.94;5017482;28;51062;-52
2021/12/26 06:23:06;;;;;;;;;6.50;5.75;;;;;17.81;43.67;99894.59;5017442;28;51188;-52
2021/12/26 06:25:31;;;;;;;;;9.00;6.25;;;;;17.81;43.79;99894.59;5017197;28;51714;-51
2021/12/26 06:27:56;;;;;;;;;7.75;5.25;;;;;17.82;43.94;99891.66;5017073;28;51178;-50
2021/12/26 06:30:22;;;;;;;;;4.50;4.50;;;;;17.82;43.63;99886.16;5017451;28;51027;-47
2021/12/26 06:32:47;;;;;;;;;7.50;7.00;;;;;17.81;43.74;99892.69;5017278;28;51003;-46
2021/12/26 06:35:13;;;;;;;;;7.25;5.75;;;;;17.81;43.76;99880.88;5017016;28;50958;-49
2021/12/26 06:37:39;;;;;;;;;6.00;5.50;;;;;17.81;43.86;99884.47;5017154;28;51246;-50
2021/12/26 06:40:08;;;;;;;;;6.25;5.50;;;;;17.81;43.90;99881.72;5017198;28;51328;-52
2021/12/26 06:42:39;;;;;;;;;5.50;5.25;;;;;17.80;43.83;99882.78;5017165;28;51031;-50
2021/12/26 06:45:05;;;;;;;;;5.25;5.25;;;;;17.80;43.70;99885.53;5016677;28;52746;-49
2021/12/26 06:47:30;;;;;;;;;5.25;5.00;;;;;17.82;44.02;99885.31;5017027;28;51145;-50
2021/12/26 06:49:56;;;;;;;;;4.50;4.25;;;;;17.81;43.62;99878.16;5016846;28;51136;-51
2021/12/26 06:52:21;;;;;;;;;3.75;3.75;;;;;17.81;43.75;99884.47;5017130;28;51184;-50
2021/12/26 06:54:47;;;;;;;;;6.75;6.00;;;;;17.80;43.62;99882.78;5016585;28;51778;-49
2021/12/26 06:57:13;;;;;;;;;6.25;5.50;;;;;17.81;43.82;99876.25;5016600;28;51172;-49
2021/12/26 06:59:38;;;;;;;;;6.00;6.00;;;;;17.81;43.55;99886.38;5016915;28;51113;-47
2021/12/26 07:02:04;;;;;;;;;5.25;5.25;;;;;17.81;43.63;99883.63;5016969;28;51020;-50
2021/12/26 07:04:29;;;;;;;;;5.00;5.00;;;;;17.81;43.95;99887.19;5015124;28;51739;-48
2021/12/26 07:06:54;;;;;;;;;9.50;5.25;;;;;17.82;43.70;99888.03;5016724;28;51119;-49
2021/12/26 07:09:20;;;;;;;;;5.50;5.50;;;;;17.80;44.02;99882.78;5016480;28;51168;-49
2021/12/26 07:11:45;;;;;;;;;6.50;4.75;;;;;17.81;43.76;99880.88;5016951;28;50883;-52
2021/12/26 07:14:10;;;;;;;;;6.00;6.00;;;;;17.81;43.87;99881.72;5016183;28;51963;-54
2021/12/26 07:16:36;;;;;;;;;4.25;4.25;;;;;17.81;44.09;99883.63;5016527;28;51003;-48
2021/12/26 07:19:01;;;;;;;;;6.25;5.25;;;;;17.81;43.94;99880.88;5016234;28;51201;-50
2021/12/26 07:21:27;;;;;;;;;5.75;5.00;;;;;17.80;43.94;99882.78;5016180;28;50942;-51
2021/12/26 07:23:52;;;;;;;;;9.00;6.00;;;;;17.80;43.88;99888.28;5015955;28;51734;-47
2021/12/26 07:26:18;;;;;;;;;5.75;5.75;;;;;17.81;43.94;99895.41;5016324;28;51391;-52
2021/12/26 07:28:43;;;;;;;;;4.75;4.50;;;;;17.80;44.02;99893.75;5015085;28;51259;-51
2021/12/26 07:31:09;;;;;;;;;7.00;7.00;;;;;17.82;44.14;99890.78;5016538;28;51018;-51
2021/12/26 07:33:34;;;;;;;;;5.00;5.00;;;;;17.82;43.62;99899.00;5016006;28;50914;-47
2021/12/26 07:35:59;;;;;;;;;7.25;5.75;;;;;17.81;43.74;99895.41;5016223;28;51125;-49
2021/12/26 07:38:25;;;;;;;;;6.00;5.75;;;;;17.81;43.80;99903.63;5016094;28;51167;-50
2021/12/26 07:40:50;;;;;;;;;6.00;5.00;;;;;17.81;43.95;99903.63;5016242;28;51182;-50
2021/12/26 07:43:16;;;;;;;;;4.00;3.50;;;;;17.82;44.08;99902.59;5015853;28;51948;-48
2021/12/26 07:45:41;;;;;;;;;6.00;6.00;;;;;17.82;44.03;99899.00;5016316;28;51046;-50
2021/12/26 07:48:06;;;;;;;;;4.50;4.25;;;;;17.82;44.06;99899.00;5015938;28;51138;-47
2021/12/26 07:50:32;;;;;;;;;4.75;4.75;;;;;17.82;43.65;99896.25;5016363;28;51509;-47
2021/12/26 07:53:06;;;;;;;;;7.50;5.00;;;;;17.81;44.03;99894.59;5015704;28;51107;-45
2021/12/26 07:55:31;;;;;;;;;5.25;4.25;;;;;17.81;43.95;99898.16;5015664;28;51036;-52
2021/12/26 07:57:56;;;;;;;;;4.00;4.00;;;;;17.82;43.69;99907.22;5016099;28;51209;-46
2021/12/26 08:00:22;;;;;;;;;5.75;5.75;;;;;17.82;44.02;99890.78;5016166;28;51101;-46
2021/12/26 08:02:48;;;;;;;;;5.25;5.00;;;;;17.80;44.03;99904.72;5015606;28;51914;-47
2021/12/26 08:05:15;;;;;;;;;4.75;4.25;;;;;17.81;43.80;99908.28;5014536;28;51493;-48
2021/12/26 08:07:40;;;;;;;;;5.00;5.00;;;;;17.81;43.97;99911.84;5015566;28;51118;-47
2021/12/26 08:10:07;;;;;;;;;5.00;5.00;;;;;17.81;44.13;99905.53;5016131;28;50935;-48
2021/12/26 08:12:32;;;;;;;;;5.75;5.50;;;;;17.81;44.00;99911.84;5015367;28;51958;-51
2021/12/26 08:15:01;;;;;;;;;5.75;5.75;;;;;17.82;43.86;99909.94;5030999;28;51073;-47
2021/12/26 08:17:27;;;;;;;;;5.75;5.25;;;;;17.81;43.88;99911.84;5015791;28;51041;-50
2021/12/26 08:19:52;;;;;;;;;4.50;4.25;;;;;17.81;43.90;99909.13;5015477;28;51274;-47
2021/12/26 08:22:17;;;;;;;;;4.50;4.50;;;;;17.81;43.94;99905.53;5015492;28;51968;-48
2021/12/26 08:24:43;;;;;;;;;4.00;3.25;;;;;17.81;43.81;99903.63;5015545;28;50997;-50
2021/12/26 08:27:08;;;;;;;;;4.00;3.75;;;;;17.82;44.10;99913.56;5015464;28;51062;-51
2021/12/26 08:29:34;;;;;;;;;4.25;3.50;;;;;17.82;44.17;99919.03;5015661;28;50986;-49
2021/12/26 08:32:00;;;;;;;;;6.75;5.00;;;;;17.82;44.02;99919.03;5017492;28;51690;-46
2021/12/26 08:34:26;;;;;;;;;5.00;4.50;;;;;17.83;43.88;99922.63;5019008;28;50928;-49
2021/12/26 08:37:03;;;;;;;;;5.25;5.25;;;;;17.83;44.11;99925.34;5018777;28;51278;-48
2021/12/26 08:39:34;;;;;;;;;8.00;5.00;;;;;17.82;44.04;99923.66;5018715;28;50977;-48
2021/12/26 08:41:59;;;;;;;;;2.75;2.75;;;;;17.82;43.86;99923.66;5018729;28;51082;-50
2021/12/26 08:44:25;;;;;;;;;6.00;5.50;;;;;17.82;43.94;99930.00;5018665;28;51167;-50
2021/12/26 08:46:52;;;;;;;;;8.00;5.00;;;;;17.81;43.86;99922.81;5018708;28;51183;-49
2021/12/26 08:49:18;;;;;;;;;6.00;5.50;;;;;17.81;43.87;99928.28;5018901;28;50980;-51
2021/12/26 08:51:45;;;;;;;;;6.25;5.75;;;;;17.82;43.86;99935.47;5018488;28;52049;-54
2021/12/26 08:54:11;;;;;;;;;4.25;3.75;;;;;17.83;43.85;99933.56;5018653;28;51420;-46
2021/12/26 08:56:37;;;;;;;;;5.50;5.00;;;;;17.83;43.82;99936.31;5018710;28;51159;-49
2021/12/26 08:59:02;;;;;;;;;6.00;4.25;;;;;17.83;43.96;99939.06;5018823;28;51097;-46
2021/12/26 09:01:28;;;;;;;;;8.50;6.75;;;;;17.82;44.08;99935.47;5018556;28;50999;-52
2021/12/26 09:03:54;;;;;;;;;5.00;3.00;;;;;17.82;44.30;99938.22;5018510;28;51034;-51
2021/12/26 09:06:19;;;;;;;;;4.00;2.25;;;;;17.82;44.05;99946.44;5018979;28;51156;-52
2021/12/26 09:08:44;;;;;;;;;6.25;4.00;;;;;17.82;44.06;99946.44;5018550;28;51028;-49
2021/12/26 09:11:10;;;;;;;;;6.75;6.00;;;;;17.82;44.06;99946.44;5018393;28;50946;-52
2021/12/26 09:13:35;;;;;;;;;6.25;5.00;;;;;17.82;43.96;99940.09;5018585;28;51106;-51
2021/12/26 09:16:02;;;;;;;;;4.25;4.25;;;;;17.82;44.16;99942.84;5018455;28;51257;-51
2021/12/26 09:18:27;;;;;;;;;3.00;2.75;;;;;17.83;44.05;99956.31;5018357;28;50946;-53
2021/12/26 09:20:53;;;;;;;;;4.75;4.00;;;;;17.83;43.79;99956.31;5018279;28;52206;-52
2021/12/26 09:23:18;;;;;;;;;5.25;5.25;;;;;17.83;44.18;99963.72;5018196;28;51092;-51
2021/12/26 09:25:44;;;;;;;;;8.50;6.50;;;;;17.83;43.86;99961.81;5018665;28;51177;-49
2021/12/26 09:28:09;;;;;;;;;5.00;5.00;;;;;17.82;43.93;99957.41;5018032;28;51105;-52
2021/12/26 09:30:36;;;;;;;;;4.00;4.00;;;;;17.83;44.27;99959.06;5033227;28;51653;-52
2021/12/26 09:33:02;;;;;;;;;4.50;4.00;;;;;17.83;44.22;99959.06;5018134;28;51398;-50
2021/12/26 09:35:28;;;;;;;;;6.00;5.25;;;;;17.84;43.94;99962.66;5018301;28;51117;-46
2021/12/26 09:37:53;;;;;;;;;6.00;5.50;;;;;17.84;43.93;99959.91;5017893;28;51130;-50
2021/12/26 09:40:19;;;;;;;;;7.25;5.00;;;;;17.84;44.02;99959.91;5018013;28;52178;-46
2021/12/26 09:42:46;;;;;;;;;10.00;6.25;;;;;17.83;43.87;99960.97;5017156;28;51201;-47
2021/12/26 09:45:12;;;;;;;;;6.75;5.00;;;;;17.84;44.06;99963.47;5017649;28;51091;-49
2021/12/26 09:47:38;;;;;;;;;7.00;6.50;;;;;17.84;44.22;99963.47;5018189;28;51191;-51
2021/12/26 09:50:06;;;;;;;;;6.75;5.00;;;;;17.84;44.18;99966.22;5017385;28;51102;-50
2021/12/26 09:52:32;;;;;;;;;5.25;4.00;;;;;17.84;43.97;99960.75;5016926;28;51444;-53
2021/12/26 09:54:59;;;;;;;;;5.25;5.25;;;;;17.84;43.95;99960.75;5017427;28;51134;-49
2021/12/26 09:57:24;;;;;;;;;7.50;4.75;;;;;17.85;44.19;99961.56;5017580;28;51076;-51
2021/12/26 09:59:50;;;;;;;;;6.00;6.00;;;;;17.84;44.22;99958.00;5017452;28;51522;-50
2021/12/26 10:02:16;;;;;;;;;7.00;5.00;;;;;17.85;44.07;99978.00;5017701;28;51074;-51
2021/12/26 10:04:43;;;;;;;;;7.00;5.00;;;;;17.85;43.99;99967.91;5017684;28;51110;-51
2021/12/26 10:07:11;;;;;;;;;4.75;4.75;;;;;17.85;44.13;99961.56;5017602;28;51009;-52
2021/12/26 10:09:38;;;;;;;;;6.25;6.00;;;;;17.85;43.97;99967.91;5016941;28;52645;-51
2021/12/26 10:12:05;;;;;;;;;4.75;4.75;;;;;17.86;44.17;99968.72;5017450;28;51112;-50
2021/12/26 10:14:33;;;;;;;;;7.00;5.00;;;;;17.85;44.28;99970.63;5017452;28;50961;-51
2021/12/26 10:17:04;;;;;;;;;7.00;6.75;;;;;17.85;44.18;99962.41;5017252;28;50987;-52
2021/12/26 10:19:34;;;;;;;;;8.00;7.25;;;;;17.86;44.25;99957.78;5016743;28;51831;-51
2021/12/26 10:22:01;;;;;;;;;6.00;5.50;;;;;17.87;43.86;99959.44;5017168;28;51298;-52
2021/12/26 10:24:41;;;;;;;;;8.75;5.25;;;;;17.88;44.24;99944.69;5017055;28;51084;-51
2021/12/26 10:27:09;;;;;;;;;5.00;5.00;;;;;17.87;44.04;99945.75;5017315;28;50970;-50
2021/12/26 10:29:38;;;;;;;;;5.00;4.00;;;;;17.87;44.14;99941.09;5015417;28;51909;-53
2021/12/26 10:32:06;;;;;;;;;7.75;5.00;;;;;17.87;43.91;99943.00;5017028;28;51089;-52
2021/12/26 10:34:42;;;;;;;;;10.75;6.75;;;;;17.87;44.20;99937.53;5016847;28;50970;-53
2021/12/26 10:37:47;;;;;;;;;8.25;5.25;;;;;17.85;44.24;99935.03;5017197;28;51406;-49
2021/12/26 10:40:15;;;;;;;;;6.00;4.00;;;;;17.88;44.14;99944.69;5009204;28;51567;-53
2021/12/26 10:42:48;;;;;;;;;5.25;4.75;;;;;17.87;43.90;99943.00;5016532;28;51293;-51
2021/12/26 10:45:17;;;;;;;;;8.50;5.00;;;;;17.87;44.06;99943.84;5016717;28;50949;-50
2021/12/26 10:47:48;;;;;;;;;4.50;4.50;;;;;17.87;44.20;99937.53;5015442;28;50989;-52
2021/12/26 10:50:20;;;;;;;;;6.50;6.50;;;;;17.88;43.99;99939.19;5016963;28;51096;-53
2021/12/26 10:52:49;;;;;;;;;5.00;4.75;;;;;17.87;44.09;99932.03;5016471;28;50998;-53
2021/12/26 10:55:19;;;;;;;;;8.50;5.50;;;;;17.88;44.07;99931.81;5015760;28;51127;-51
2021/12/26 10:57:50;;;;;;;;;4.25;4.25;;;;;17.88;44.03;99929.06;5016804;28;51204;-49
2021/12/26 11:00:24;;;;;;;;;7.50;4.50;;;;;17.88;44.32;99925.50;5016499;28;51799;-50
2021/12/26 11:03:03;;;;;;;;;9.75;5.00;;;;;17.88;44.18;99922.75;5016717;28;51025;-49
2021/12/26 11:05:43;;;;;;;;;9.75;4.75;;;;;17.88;44.04;99925.50;5016708;28;51140;-51
2021/12/26 11:08:13;;;;;;;;;5.50;5.50;;;;;17.88;44.31;99925.50;5016233;28;51217;-50
2021/12/26 11:11:06;;;;;;;;;6.25;5.00;;;;;17.88;44.27;99930.97;5016042;28;51880;-52
2021/12/26 11:13:32;;;;;;;;;5.25;5.00;;;;;17.88;43.91;99934.56;5015236;28;51421;-49
2021/12/26 11:16:07;;;;;;;;;6.00;6.00;;;;;17.87;44.24;99929.31;5110587;27;51019;-53
2021/12/26 11:18:36;;;;;;;;;6.00;5.00;;;;;17.87;44.25;99935.63;5092842;27;51165;-52
2021/12/26 11:21:08;;;;;;;;;5.00;4.50;;;;;17.89;44.05;99922.53;5093146;27;50978;-49
2021/12/26 11:23:41;;;;;;;;;6.50;5.50;;;;;17.89;44.22;99919.78;5092337;27;51906;-53
2021/12/26 11:26:15;;;;;;;;;8.00;5.50;;;;;17.89;43.93;99930.75;5092646;27;51416;-51
2021/12/26 11:28:44;;;;;;;;;8.25;6.50;;;;;17.89;44.27;99922.53;5092527;27;51014;-50
2021/12/26 11:31:30;;;;;;;;;5.00;5.00;;;;;17.91;44.15;99926.94;5092786;27;51074;-53
2021/12/26 11:34:02;;;;;;;;;6.75;5.00;;;;;17.89;44.35;99924.44;5092562;27;52680;-51
2021/12/26 11:36:32;;;;;;;;;6.50;6.00;;;;;17.88;44.17;99926.34;5092569;27;51167;-51